Time;durP1;ratioP1;P1;durP2;ratioP2;P2;SDS_P1;SDS_P2;PMS_P1;PMS_P2;Temp;Humidity;BMP_temperature;BMP_pressure;BME280_temperature;BME280_humidity;BME280_pressure;Samples;Min_cycle;Max_cycle;Signal;HPM_P1;HPM_P2
2022/04/11 00:01:04;;;;;;;;;4.33;4.33;;;;;9.83;46.62;101216.06;5056524;28;45413;-44
2022/04/11 00:03:30;;;;;;;;;8.33;6.67;;;;;9.86;46.94;101226.44;5056679;28;45602;-46
2022/04/11 00:05:55;;;;;;;;;6.00;6.00;;;;;9.85;47.49;101219.41;5056655;28;45345;-48
2022/04/11 00:08:22;;;;;;;;;5.33;3.00;;;;;9.83;46.12;101217.88;5057626;28;46271;-45
2022/04/11 00:10:48;;;;;;;;;7.00;7.00;;;;;9.80;47.06;101210.16;5060506;27;45439;-45
2022/04/11 00:13:13;;;;;;;;;6.25;6.00;;;;;9.73;47.69;101216.00;5059882;28;45281;-44
2022/04/11 00:15:42;;;;;;;;;5.75;5.00;;;;;9.65;47.89;101215.81;5075875;28;45419;-46
2022/04/11 00:18:08;;;;;;;;;9.00;5.00;;;;;9.66;47.88;101220.16;5059748;28;46169;-45
2022/04/11 00:20:34;;;;;;;;;4.00;3.50;;;;;9.64;47.02;101203.47;5059611;28;45399;-43
2022/04/11 00:23:00;;;;;;;;;5.75;5.50;;;;;9.71;47.68;101209.13;5059825;28;45345;-46
2022/04/11 00:25:26;;;;;;;;;3.50;3.50;;;;;9.55;48.37;101201.59;5060041;28;45322;-45
2022/04/11 00:27:54;;;;;;;;;5.00;5.00;;;;;9.56;48.32;101208.59;5059410;28;46155;-46
2022/04/11 00:30:19;;;;;;;;;5.75;3.50;;;;;9.51;47.48;101200.16;5059579;28;45263;-47
2022/04/11 00:32:44;;;;;;;;;4.50;2.25;;;;;9.58;47.64;101204.00;5059328;28;45360;-48
2022/04/11 00:35:10;;;;;;;;;6.75;5.00;;;;;9.58;47.50;101185.41;5059933;28;45419;-46
2022/04/11 00:37:37;;;;;;;;;3.50;2.75;;;;;9.56;47.59;101182.03;5059340;28;46326;-46
2022/04/11 00:40:07;;;;;;;;;5.25;3.50;;;;;9.59;48.89;101183.59;5059442;28;45434;-47
2022/04/11 00:42:32;;;;;;;;;4.33;4.33;;;;;9.54;48.48;101164.56;5061415;27;45501;-45
2022/04/11 00:45:02;;;;;;;;;6.50;6.00;;;;;9.51;48.31;101160.34;5059590;28;45627;-49
2022/04/11 00:47:28;;;;;;;;;6.75;5.00;;;;;9.56;47.63;101160.78;5059257;28;47163;-45
2022/04/11 00:50:02;;;;;;;;;5.00;5.00;;;;;9.55;47.52;101151.13;5059223;28;45353;-46
2022/04/11 00:52:30;;;;;;;;;5.00;2.50;;;;;9.55;47.68;101145.00;5059502;28;45351;-45
2022/04/11 00:54:57;;;;;;;;;6.75;5.25;;;;;9.58;48.29;101150.88;5059348;28;45334;-44
2022/04/11 00:57:23;;;;;;;;;9.75;5.50;;;;;9.50;48.64;101150.69;5058726;28;47208;-44
2022/04/11 00:59:49;;;;;;;;;5.00;5.00;;;;;9.47;48.81;101146.47;5058808;28;45418;-45
2022/04/11 01:02:15;;;;;;;;;7.00;3.00;;;;;9.38;48.38;101139.28;5059465;28;45407;-45
2022/04/11 01:04:41;;;;;;;;;5.33;5.00;;;;;9.33;49.20;101136.19;5059367;28;45440;-47
2022/04/11 01:07:08;;;;;;;;;3.00;3.00;;;;;9.28;48.83;101125.13;5058945;28;46270;-45
2022/04/11 01:09:34;;;;;;;;;5.00;5.00;;;;;9.29;49.40;101123.28;5058799;28;45415;-44
2022/04/11 01:12:02;;;;;;;;;3.00;3.00;;;;;9.29;48.53;101118.81;5059032;28;45250;-46
2022/04/11 01:14:27;;;;;;;;;5.00;5.00;;;;;9.28;49.38;101126.94;5058916;28;45550;-47
2022/04/11 01:16:53;;;;;;;;;4.25;4.25;;;;;9.19;49.91;101118.75;5058663;28;46000;-49
2022/04/11 01:19:20;;;;;;;;;6.00;4.50;;;;;9.20;48.87;101111.66;5058215;28;45406;-45
2022/04/11 01:21:49;;;;;;;;;5.25;3.00;;;;;9.24;49.06;101105.09;5058735;28;45294;-46
2022/04/11 01:24:18;;;;;;;;;5.50;5.50;;;;;9.16;48.74;101087.16;5059078;28;45452;-43
2022/04/11 01:26:45;;;;;;;;;5.00;5.00;;;;;9.17;48.81;101094.16;5058699;28;47240;-45
2022/04/11 01:29:12;;;;;;;;;5.00;5.00;;;;;9.11;49.16;101089.38;5058460;28;45495;-44
2022/04/11 01:31:37;;;;;;;;;5.75;2.75;;;;;9.08;49.31;101092.28;5058597;28;45467;-45
2022/04/11 01:34:02;;;;;;;;;10.00;3.25;;;;;9.06;49.38;101088.06;5058830;28;45339;-46
2022/04/11 01:36:28;;;;;;;;;8.50;5.50;;;;;9.06;48.99;101086.28;5058252;28;46081;-47
2022/04/11 01:38:53;;;;;;;;;5.00;5.00;;;;;8.97;49.49;101071.09;5058341;28;45546;-44
2022/04/11 01:41:20;;;;;;;;;3.50;3.50;;;;;8.98;49.68;101081.59;5058725;28;45356;-46
2022/04/11 01:43:46;;;;;;;;;7.50;3.00;;;;;8.96;49.25;101077.38;5058550;28;45543;-46
2022/04/11 01:46:11;;;;;;;;;5.00;2.00;;;;;8.98;48.35;101078.09;5058690;28;46408;-43
2022/04/11 01:48:37;;;;;;;;;5.25;3.50;;;;;8.96;48.43;101077.38;5058827;28;45428;-44
2022/04/11 01:51:02;;;;;;;;;2.00;2.00;;;;;8.94;48.82;101074.03;5058696;28;45432;-48
2022/04/11 01:53:28;;;;;;;;;5.75;3.25;;;;;8.86;49.31;101064.03;5058497;28;45320;-45
2022/04/11 01:55:53;;;;;;;;;3.00;3.00;;;;;8.87;48.04;101064.88;5057766;28;46940;-45
2022/04/11 01:58:19;;;;;;;;;2.00;2.00;;;;;8.89;49.23;101071.75;5058233;28;45209;-42
2022/04/11 02:00:44;;;;;;;;;6.00;5.00;;;;;8.87;48.31;101063.06;5058131;28;45237;-43
2022/04/11 02:03:11;;;;;;;;;4.00;3.00;;;;;8.90;48.36;101060.16;5058428;28;45446;-46
2022/04/11 02:05:38;;;;;;;;;5.50;3.00;;;;;8.84;48.40;101062.47;5074088;28;47009;-44
2022/04/11 02:08:06;;;;;;;;;5.00;4.00;;;;;8.82;49.65;101057.31;5057932;28;45425;-47
2022/04/11 02:10:31;;;;;;;;;2.50;2.00;;;;;8.79;48.50;101056.72;5058040;28;45311;-45
2022/04/11 02:12:58;;;;;;;;;4.25;2.50;;;;;8.75;49.11;101050.81;5058057;28;45519;-48
2022/04/11 02:15:23;;;;;;;;;5.00;3.00;;;;;8.71;49.38;101055.53;5057526;28;46476;-47
2022/04/11 02:17:50;;;;;;;;;4.50;4.50;;;;;8.66;48.57;101051.59;5057836;28;45286;-43
2022/04/11 02:20:16;;;;;;;;;2.75;2.25;;;;;8.62;49.65;101045.69;5058112;28;45505;-46
2022/04/11 02:22:51;;;;;;;;;11.75;3.50;;;;;8.69;49.55;101051.34;5058073;28;45305;-44
2022/04/11 02:25:18;;;;;;;;;4.00;4.00;;;;;8.68;48.35;101041.69;5057623;28;46139;-42
2022/04/11 02:27:44;;;;;;;;;2.50;2.50;;;;;8.66;48.15;101033.84;5057593;28;45572;-45
2022/04/11 02:30:11;;;;;;;;;5.75;4.00;;;;;8.69;48.13;101025.66;5057588;28;45333;-46
2022/04/11 02:32:37;;;;;;;;;4.25;4.00;;;;;8.66;48.11;101028.56;5057833;28;45163;-43
2022/04/11 02:35:03;;;;;;;;;5.00;2.25;;;;;8.63;48.40;101025.31;5057459;28;45461;-42
2022/04/11 02:37:29;;;;;;;;;3.50;2.00;;;;;8.62;47.95;101024.47;5057119;28;45260;-47
2022/04/11 02:39:54;;;;;;;;;4.00;3.00;;;;;8.61;48.88;101024.63;5057518;28;45250;-46
2022/04/11 02:42:24;;;;;;;;;6.25;4.00;;;;;8.64;47.80;101030.50;5057833;28;45218;-44
2022/04/11 02:44:49;;;;;;;;;4.00;4.00;;;;;8.61;47.48;101029.91;5057235;28;47210;-44
2022/04/11 02:47:15;;;;;;;;;4.00;4.00;;;;;8.61;47.94;101019.31;5057439;28;45297;-43
2022/04/11 02:49:40;;;;;;;;;3.75;3.75;;;;;8.62;47.49;101028.94;5057638;28;45323;-48
2022/04/11 02:52:06;;;;;;;;;3.00;3.00;;;;;8.62;47.49;101024.47;5057644;28;45419;-44
2022/04/11 02:54:31;;;;;;;;;2.00;1.50;;;;;8.59;48.04;101016.75;5057264;28;46283;-48
2022/04/11 02:56:56;;;;;;;;;4.25;2.00;;;;;8.55;48.27;101017.16;5057051;28;45415;-48
2022/04/11 02:59:22;;;;;;;;;4.75;2.25;;;;;8.51;48.26;101003.28;5057176;28;45588;-47
2022/04/11 03:01:48;;;;;;;;;5.50;4.00;;;;;8.55;47.29;100995.94;5057497;28;45368;-43
2022/04/11 03:04:13;;;;;;;;;4.00;1.75;;;;;8.54;47.13;100978.34;5057093;28;46016;-44
2022/04/11 03:06:39;;;;;;;;;6.00;3.00;;;;;8.56;47.69;100985.22;5057236;28;45321;-44
2022/04/11 03:09:04;;;;;;;;;4.25;3.50;;;;;8.54;48.40;100973.03;5057385;28;45438;-44
2022/04/11 03:11:30;;;;;;;;;1.00;1.00;;;;;8.54;47.98;100981.84;5057600;28;45474;-45
2022/04/11 03:13:55;;;;;;;;;5.25;2.50;;;;;8.48;47.99;100982.38;5056968;28;47049;-44
2022/04/11 03:16:20;;;;;;;;;4.00;4.00;;;;;8.47;47.78;100978.88;5056928;28;45357;-48
2022/04/11 03:18:46;;;;;;;;;2.00;2.00;;;;;8.44;48.47;100967.69;5057227;28;45380;-43
2022/04/11 03:21:11;;;;;;;;;2.00;2.00;;;;;8.41;48.45;100973.22;5057236;28;45314;-44
2022/04/11 03:23:36;;;;;;;;;2.50;2.50;;;;;8.40;47.80;100966.25;5057005;28;45939;-44
2022/04/11 03:26:02;;;;;;;;;2.00;2.00;;;;;8.41;48.18;100965.28;5057154;28;45347;-45
2022/04/11 03:28:27;;;;;;;;;6.25;6.25;;;;;8.40;48.61;100974.19;5057032;28;45401;-45
2022/04/11 03:30:53;;;;;;;;;4.00;4.00;;;;;8.37;47.83;100977.09;5057040;28;45372;-45
2022/04/11 03:33:18;;;;;;;;;2.00;2.00;;;;;8.38;47.51;100968.16;5056693;28;46052;-47
2022/04/11 03:35:43;;;;;;;;;6.00;4.00;;;;;8.38;48.93;100978.78;5056944;28;45322;-43
2022/04/11 03:38:08;;;;;;;;;3.00;3.00;;;;;8.36;47.31;100975.38;5057053;28;45389;-46
2022/04/11 03:40:34;;;;;;;;;4.00;4.00;;;;;8.35;47.77;100976.38;5057145;28;45445;-44
2022/04/11 03:42:59;;;;;;;;;2.00;2.00;;;;;8.34;47.44;100977.31;5057579;28;47226;-45
2022/04/11 03:45:25;;;;;;;;;5.50;5.00;;;;;8.29;48.98;100979.50;5060102;28;45340;-46
2022/04/11 03:47:50;;;;;;;;;4.00;4.00;;;;;8.25;48.58;100968.31;5060314;28;45875;-46
2022/04/11 03:50:15;;;;;;;;;5.75;3.75;;;;;8.25;48.96;100961.19;5060710;28;45542;-46
2022/04/11 03:52:41;;;;;;;;;6.25;3.00;;;;;8.25;47.94;100958.53;5060232;28;46121;-46
2022/04/11 03:55:06;;;;;;;;;3.25;2.00;;;;;8.32;48.58;100958.06;5060099;28;45352;-45
2022/04/11 03:57:33;;;;;;;;;6.50;4.00;;;;;8.30;48.18;100954.69;5060139;28;45214;-47
2022/04/11 03:59:58;;;;;;;;;6.00;2.75;;;;;8.29;47.73;100945.88;5060390;28;45419;-46
2022/04/11 04:02:23;;;;;;;;;4.50;2.00;;;;;8.25;48.75;100947.09;5059745;28;45277;-46
2022/04/11 04:04:49;;;;;;;;;4.00;3.50;;;;;8.22;47.89;100940.28;5059915;28;45466;-45
2022/04/11 04:07:14;;;;;;;;;3.00;2.25;;;;;8.25;48.09;100939.16;5060277;28;45332;-45
2022/04/11 04:09:40;;;;;;;;;2.25;2.25;;;;;8.21;48.82;100933.25;5060356;28;45431;-45
2022/04/11 04:12:06;;;;;;;;;3.25;3.25;;;;;8.20;47.80;100928.09;5059732;28;47330;-50
2022/04/11 04:14:31;;;;;;;;;7.00;2.00;;;;;8.19;48.45;100927.25;5060135;28;45578;-45
2022/04/11 04:16:56;;;;;;;;;4.50;4.50;;;;;8.19;48.28;100927.25;5060249;28;45447;-44
2022/04/11 04:19:22;;;;;;;;;5.00;3.50;;;;;8.21;48.15;100927.97;5061813;28;45317;-47
2022/04/11 04:21:47;;;;;;;;;4.50;4.25;;;;;8.08;48.93;100914.06;5061073;28;45381;-43
2022/04/11 04:24:13;;;;;;;;;5.00;4.00;;;;;8.12;48.48;100931.38;5060850;28;45339;-44
2022/04/11 04:26:38;;;;;;;;;5.25;2.00;;;;;8.10;48.04;100917.44;5060174;28;45341;-48
2022/04/11 04:29:04;;;;;;;;;4.00;4.00;;;;;8.03;48.24;100913.59;5058652;28;45486;-48
2022/04/11 04:31:30;;;;;;;;;1.00;1.00;;;;;8.05;48.62;100927.56;5059572;28;46297;-48
2022/04/11 04:33:55;;;;;;;;;8.25;4.00;;;;;8.02;48.45;100919.88;5059514;28;45452;-48
2022/04/11 04:36:20;;;;;;;;;3.25;2.00;;;;;8.02;47.39;100913.72;5059579;28;45414;-47
2022/04/11 04:38:46;;;;;;;;;3.00;1.75;;;;;8.00;49.17;100911.19;5060203;28;45300;-46
2022/04/11 04:41:11;;;;;;;;;2.00;2.00;;;;;8.02;48.04;100905.78;5059776;28;46207;-43
2022/04/11 04:43:37;;;;;;;;;3.50;3.25;;;;;8.03;47.26;100894.22;5059916;28;45210;-46
2022/04/11 04:46:02;;;;;;;;;3.25;2.00;;;;;7.96;49.01;100888.56;5059420;28;45488;-46
2022/04/11 04:48:27;;;;;;;;;3.25;3.25;;;;;7.90;48.93;100905.81;5059743;28;45135;-47
2022/04/11 04:50:54;;;;;;;;;3.50;3.50;;;;;7.85;48.86;100899.22;5059341;28;45349;-44
2022/04/11 04:53:19;;;;;;;;;4.50;4.50;;;;;7.85;48.33;100909.81;5059257;28;45281;-46
2022/04/11 04:55:44;;;;;;;;;3.75;3.75;;;;;7.84;48.67;100908.97;5057971;28;45500;-46
2022/04/11 04:58:10;;;;;;;;;3.00;3.00;;;;;7.82;49.22;100921.47;5059314;28;45201;-47
2022/04/11 05:00:35;;;;;;;;;2.00;2.00;;;;;7.81;48.90;100924.28;5058896;28;46508;-46
2022/04/11 05:03:00;;;;;;;;;7.00;3.00;;;;;7.80;49.13;100922.59;5058890;28;45344;-44
2022/04/11 05:05:26;;;;;;;;;3.25;3.25;;;;;7.82;49.24;100928.59;5059220;28;45302;-46
2022/04/11 05:07:51;;;;;;;;;4.25;2.00;;;;;7.82;48.90;100937.38;5059144;28;45417;-46
2022/04/11 05:10:16;;;;;;;;;9.00;4.00;;;;;7.78;48.98;100927.16;5058882;28;45362;-45
2022/04/11 05:12:44;;;;;;;;;4.00;3.00;;;;;7.85;48.99;100934.50;5059036;28;45326;-44
2022/04/11 05:15:10;;;;;;;;;2.00;2.00;;;;;7.91;49.10;100938.44;5074831;28;45300;-47
2022/04/11 05:17:35;;;;;;;;;5.00;4.00;;;;;7.90;48.44;100920.88;5058656;28;45321;-45
2022/04/11 05:20:03;;;;;;;;;10.00;5.25;;;;;7.98;48.95;100921.09;5058688;28;47127;-47
2022/04/11 05:22:28;;;;;;;;;8.75;5.00;;;;;8.05;48.26;100918.75;5058754;28;45427;-47
2022/04/11 05:24:53;;;;;;;;;4.25;4.25;;;;;8.08;48.01;100919.34;5058708;28;45467;-49
2022/04/11 05:27:19;;;;;;;;;6.75;5.00;;;;;8.05;48.51;100914.31;5059043;28;45435;-44
2022/04/11 05:29:44;;;;;;;;;7.75;4.25;;;;;8.11;48.26;100916.47;5058457;28;47151;-49
2022/04/11 05:32:09;;;;;;;;;4.50;4.50;;;;;8.13;48.14;100911.88;5058401;28;45757;-48
2022/04/11 05:34:35;;;;;;;;;8.00;4.00;;;;;8.16;48.34;100919.56;5058639;28;45308;-45
2022/04/11 05:37:00;;;;;;;;;5.00;2.00;;;;;8.14;48.71;100918.03;5058741;28;45360;-46
2022/04/11 05:39:26;;;;;;;;;4.00;3.25;;;;;8.12;47.84;100910.19;5058362;28;46432;-48
2022/04/11 05:41:51;;;;;;;;;4.00;4.00;;;;;8.12;47.70;100904.88;5058338;28;45230;-41
2022/04/11 05:44:16;;;;;;;;;5.00;4.50;;;;;8.14;48.32;100908.25;5058699;28;45550;-46
2022/04/11 05:46:42;;;;;;;;;5.00;5.00;;;;;8.14;48.09;100889.72;5058547;27;45351;-45
2022/04/11 05:49:07;;;;;;;;;4.50;4.50;;;;;8.18;48.06;100896.44;5057745;28;46004;-47
2022/04/11 05:51:32;;;;;;;;;4.75;4.75;;;;;8.19;48.35;100898.13;5057974;28;45445;-47
2022/04/11 05:53:58;;;;;;;;;5.75;5.25;;;;;8.20;48.39;100901.59;5057920;28;45300;-47
2022/04/11 05:56:23;;;;;;;;;3.25;3.25;;;;;8.15;48.73;100901.16;5057855;28;45305;-47
2022/04/11 05:58:48;;;;;;;;;8.25;4.25;;;;;8.15;48.64;100914.41;5057561;28;45287;-47
2022/04/11 06:01:14;;;;;;;;;4.00;4.00;;;;;8.13;47.72;100911.88;5057595;28;45430;-47
2022/04/11 06:03:39;;;;;;;;;4.00;4.00;;;;;8.21;48.39;100927.13;5057495;28;45281;-44
2022/04/11 06:06:07;;;;;;;;;5.75;5.00;;;;;8.12;48.54;100912.84;5057601;28;45306;-44
2022/04/11 06:08:32;;;;;;;;;6.00;5.50;;;;;8.23;48.66;100920.75;5057399;28;47253;-44
2022/04/11 06:10:58;;;;;;;;;6.00;6.00;;;;;8.32;48.55;100913.00;5057671;28;45171;-48
2022/04/11 06:13:23;;;;;;;;;9.00;5.75;;;;;8.34;47.56;100906.56;5057900;28;45360;-45
2022/04/11 06:15:48;;;;;;;;;8.25;5.75;;;;;8.38;48.51;100916.00;5057617;28;45419;-44
2022/04/11 06:18:14;;;;;;;;;8.50;6.50;;;;;8.42;48.40;100916.59;5057028;28;46058;-45
2022/04/11 06:20:39;;;;;;;;;3.75;0.50;;;;;8.41;48.57;100912.25;5057750;28;45403;-49
2022/04/11 06:23:05;;;;;;;;;5.50;5.50;;;;;8.55;47.50;100917.22;5057466;28;45236;-47
2022/04/11 06:25:30;;;;;;;;;7.50;5.50;;;;;8.62;48.25;100915.75;5057710;28;45413;-45
2022/04/11 06:27:55;;;;;;;;;6.00;6.00;;;;;8.67;47.68;100918.00;5057389;28;46139;-44
2022/04/11 06:30:21;;;;;;;;;6.00;6.00;;;;;8.65;47.07;100915.50;5056021;28;45249;-46
2022/04/11 06:32:46;;;;;;;;;6.50;4.25;;;;;8.70;47.10;100913.28;5057478;28;45206;-45
2022/04/11 06:35:12;;;;;;;;;9.00;6.00;;;;;8.76;46.98;100906.63;5057393;28;45349;-49
2022/04/11 06:37:37;;;;;;;;;8.00;5.75;;;;;8.84;47.34;100911.25;5057022;28;46041;-45
2022/04/11 06:40:03;;;;;;;;;8.00;5.25;;;;;8.85;46.45;100902.31;5057298;28;45467;-46
2022/04/11 06:42:29;;;;;;;;;6.00;6.00;;;;;8.86;47.16;100904.03;5057131;28;45343;-42
2022/04/11 06:44:54;;;;;;;;;8.75;7.25;;;;;8.84;47.38;100898.00;5057554;28;45514;-44
2022/04/11 06:47:21;;;;;;;;;7.00;5.25;;;;;8.99;46.48;100878.97;5056969;28;47042;-45
2022/04/11 06:49:47;;;;;;;;;8.00;6.00;;;;;8.99;46.64;100880.78;5056787;28;45312;-47
2022/04/11 06:52:13;;;;;;;;;8.50;6.00;;;;;9.14;47.13;100876.78;5057120;28;45348;-47
2022/04/11 06:54:38;;;;;;;;;7.00;7.00;;;;;9.25;45.85;100883.81;5057151;28;45448;-46
2022/04/11 06:57:04;;;;;;;;;6.75;3.00;;;;;9.28;46.26;100866.78;5056753;28;46131;-46
2022/04/11 06:59:29;;;;;;;;;5.00;2.00;;;;;9.42;46.75;100877.00;5056772;28;45911;-46
2022/04/11 07:01:55;;;;;;;;;8.50;6.00;;;;;9.48;45.59;100873.78;5056740;28;45268;-44
2022/04/11 07:04:21;;;;;;;;;6.00;6.00;;;;;9.60;45.96;100870.03;5057088;28;45417;-42
2022/04/11 07:06:47;;;;;;;;;6.50;5.25;;;;;9.73;45.56;100864.47;5056445;28;45399;-45
2022/04/11 07:09:12;;;;;;;;;10.00;6.50;;;;;9.90;45.32;100858.50;5056687;28;45302;-45
2022/04/11 07:11:38;;;;;;;;;5.00;5.00;;;;;10.17;44.36;100860.44;5056642;28;45895;-43
2022/04/11 07:14:04;;;;;;;;;8.00;5.00;;;;;10.41;44.37;100859.19;5056952;28;45300;-46
2022/04/11 07:16:29;;;;;;;;;10.00;6.00;;;;;10.50;43.90;100858.31;5056557;28;45398;-46
2022/04/11 07:18:54;;;;;;;;;5.00;5.00;;;;;10.72;43.31;100844.69;5055468;28;45532;-46
2022/04/11 07:21:20;;;;;;;;;6.00;5.67;;;;;10.90;42.78;100841.25;5056781;28;45338;-46
2022/04/11 07:23:46;;;;;;;;;6.33;5.00;;;;;11.04;43.48;100826.59;5056732;28;45397;-46
2022/04/11 07:26:11;;;;;;;;;8.00;5.00;;;;;11.40;42.18;100841.69;5056328;28;45933;-43
2022/04/11 07:28:36;;;;;;;;;7.00;4.67;;;;;11.68;43.16;100828.34;5056667;28;45293;-45
2022/04/11 07:31:02;;;;;;;;;4.00;3.00;;;;;11.84;41.02;100812.53;5056708;28;45405;-45
2022/04/11 07:33:27;;;;;;;;;3.00;3.00;;;;;12.15;42.61;100826.28;5056878;28;45178;-46
2022/04/11 07:35:53;;;;;;;;;4.33;3.67;;;;;12.33;40.26;100825.41;5056133;28;46058;-45
2022/04/11 07:38:19;;;;;;;;;8.00;5.00;;;;;12.49;40.12;100818.34;5056381;28;45188;-44
2022/04/11 07:40:44;;;;;;;;;7.00;6.00;;;;;12.63;39.42;100821.41;5056642;28;45238;-47
2022/04/11 07:43:10;;;;;;;;;7.00;6.00;;;;;12.69;39.62;100816.28;5056441;28;45424;-43
2022/04/11 07:45:35;;;;;;;;;4.67;4.33;;;;;13.03;40.48;100811.94;5056235;28;46177;-44
2022/04/11 07:48:01;;;;;;;;;4.33;4.33;;;;;13.31;38.73;100801.88;5056369;28;45424;-44
2022/04/11 07:50:26;;;;;;;;;3.67;3.33;;;;;13.68;39.46;100817.50;5056023;28;45220;-44
2022/04/11 07:52:52;;;;;;;;;4.00;4.00;;;;;13.88;38.20;100818.84;5056772;28;45409;-44
2022/04/11 07:55:17;;;;;;;;;3.00;3.00;;;;;14.01;37.52;100818.34;5055903;28;45462;-47
2022/04/11 07:57:43;;;;;;;;;5.33;3.00;;;;;13.89;38.10;100798.28;5055986;28;45390;-46
2022/04/11 08:00:09;;;;;;;;;4.33;4.00;;;;;14.12;37.30;100812.66;5056404;28;45353;-47
2022/04/11 08:02:35;;;;;;;;;4.67;3.33;;;;;14.21;37.62;100811.66;5056484;28;45843;-48
2022/04/11 08:05:02;;;;;;;;;5.67;3.67;;;;;14.45;37.11;100804.59;5055696;28;46351;-45
2022/04/11 08:07:32;;;;;;;;;4.00;4.00;;;;;14.53;37.25;100801.91;5054571;28;45440;-45
2022/04/11 08:09:58;;;;;;;;;6.00;3.33;;;;;14.78;36.60;100809.88;5056134;28;45349;-45
2022/04/11 08:12:24;;;;;;;;;10.33;6.00;;;;;15.05;35.87;100800.59;5056532;28;45465;-46
2022/04/11 08:14:49;;;;;;;;;4.33;4.33;;;;;15.14;35.55;100795.00;5056041;28;45415;-45
2022/04/11 08:17:14;;;;;;;;;4.33;4.00;;;;;15.26;35.88;100794.63;5056237;28;45328;-45
2022/04/11 08:19:40;;;;;;;;;3.67;3.67;;;;;15.44;35.89;100774.56;5056109;28;45313;-48
2022/04/11 08:22:05;;;;;;;;;2.00;2.00;;;;;15.63;34.79;100778.66;5056557;28;45307;-45
2022/04/11 08:24:32;;;;;;;;;4.00;4.00;;;;;15.78;34.84;100781.41;5055965;28;46619;-44
2022/04/11 08:26:58;;;;;;;;;4.00;4.00;;;;;15.96;33.65;100786.44;5055968;28;45361;-44
2022/04/11 08:29:25;;;;;;;;;4.00;4.00;;;;;16.00;33.98;100792.28;5057596;28;45231;-47
2022/04/11 08:31:50;;;;;;;;;4.00;4.00;;;;;16.02;34.54;100793.78;5059714;28;45248;-47
2022/04/11 08:34:15;;;;;;;;;2.00;2.00;;;;;16.11;33.85;100789.19;5059278;28;45499;-44
2022/04/11 08:36:41;;;;;;;;;3.00;3.00;;;;;16.48;34.89;100780.25;5059377;28;45358;-46
2022/04/11 08:39:06;;;;;;;;;3.33;2.33;;;;;16.83;34.11;100775.19;5059388;28;45197;-45
2022/04/11 08:41:33;;;;;;;;;3.33;3.00;;;;;17.07;32.84;100774.88;5059710;28;45491;-44
2022/04/11 08:44:01;;;;;;;;;4.00;4.00;;;;;17.31;32.36;100751.34;5059293;28;46430;-45
2022/04/11 08:46:29;;;;;;;;;3.33;3.33;;;;;17.68;32.83;100767.25;5058710;28;45352;-46
2022/04/11 08:48:54;;;;;;;;;5.00;2.67;;;;;17.99;31.42;100768.78;5059494;28;45439;-47
2022/04/11 08:51:19;;;;;;;;;3.00;3.00;;;;;18.15;31.87;100760.41;5059317;28;45447;-46
2022/04/11 08:53:45;;;;;;;;;2.00;2.00;;;;;18.66;31.55;100762.81;5059059;28;46235;-44
2022/04/11 08:56:11;;;;;;;;;3.67;2.00;;;;;19.01;30.23;100748.50;5058904;28;45229;-47
2022/04/11 08:58:36;;;;;;;;;4.67;4.67;;;;;19.33;29.49;100744.22;5059209;28;45358;-45
2022/04/11 09:01:01;;;;;;;;;3.00;3.00;;;;;20.11;29.09;100731.84;5059553;28;45246;-44
2022/04/11 09:03:27;;;;;;;;;4.00;3.00;;;;;21.06;29.92;100731.38;5058955;28;46097;-47
2022/04/11 09:06:22;;;;;;;;;3.00;3.00;;;;;21.78;26.54;100729.25;5058727;28;45286;-48
2022/04/11 09:08:54;;;;;;;;;3.75;3.75;;;;;21.81;25.77;100720.72;5036367;28;45442;-45
2022/04/11 09:11:37;;;;;;;;;3.25;3.25;;;;;21.68;26.79;100719.75;5037004;28;45548;-47
2022/04/11 09:14:05;;;;;;;;;2.00;2.00;;;;;21.60;27.92;100716.50;5036335;28;45231;-47
2022/04/11 09:16:43;;;;;;;;;2.00;2.00;;;;;21.76;26.08;100720.56;5023396;28;45388;-43
2022/04/11 09:19:18;;;;;;;;;2.50;2.50;;;;;22.10;26.15;100720.03;5016305;28;45371;-45
2022/04/11 09:21:44;;;;;;;;;3.50;2.25;;;;;22.70;27.76;100715.88;5016436;28;45409;-43
2022/04/11 09:24:19;;;;;;;;;3.50;3.50;;;;;23.32;25.29;100719.25;5016240;28;46105;-43
2022/04/11 09:26:45;;;;;;;;;3.20;2.00;;;;;23.97;24.61;100713.81;5016007;28;45469;-46
2022/04/11 09:29:12;;;;;;;;;5.25;3.00;;;;;24.83;23.36;100708.66;5016565;28;45409;-45
2022/04/11 09:31:38;;;;;;;;;3.75;1.75;;;;;26.20;21.58;100704.75;5016432;28;45435;-48
2022/04/11 09:34:27;;;;;;;;;2.00;1.60;;;;;28.56;20.40;100689.53;5016085;28;45443;-46
2022/04/11 09:36:56;;;;;;;;;2.60;2.60;;;;;29.44;20.37;100684.00;5015990;28;45894;-45
2022/04/11 09:39:24;;;;;;;;;3.20;3.20;;;;;29.87;17.60;100676.31;5016319;28;45386;-47
2022/04/11 09:41:50;;;;;;;;;5.40;3.60;;;;;30.90;17.89;100639.19;5015794;28;45402;-46
2022/04/11 09:44:26;;;;;;;;;3.40;3.20;;;;;31.68;18.23;100679.53;5017813;28;45600;-43
2022/04/11 09:46:53;;;;;;;;;0.00;0.00;;;;;32.57;17.76;100670.09;5036759;28;45460;-44
2022/04/11 09:49:19;;;;;;;;;4.60;3.00;;;;;33.31;15.23;100670.41;5036910;28;45456;-46
2022/04/11 09:52:12;;;;;;;;;3.75;3.75;;;;;33.61;16.37;100661.66;5037661;28;45373;-43
2022/04/11 09:54:49;;;;;;;;;2.00;2.00;;;;;34.16;14.58;100672.78;5037362;28;47084;-45
2022/04/11 09:57:18;;;;;;;;;1.60;1.60;;;;;34.86;12.90;100657.78;5037804;28;45413;-49
2022/04/11 09:59:45;;;;;;;;;3.20;2.00;;;;;35.30;13.00;100663.69;5037673;28;45464;-47
2022/04/11 10:02:14;;;;;;;;;3.40;2.00;;;;;34.38;12.49;100658.25;5037800;28;45459;-45
2022/04/11 10:04:39;;;;;;;;;3.40;2.60;;;;;34.45;13.42;100657.84;5037480;28;47191;-45
2022/04/11 10:07:10;;;;;;;;;2.80;1.00;;;;;34.35;14.56;100658.88;5037503;28;45327;-48
2022/04/11 10:09:39;;;;;;;;;2.20;2.20;;;;;34.45;13.83;100655.88;5037801;28;45229;-47
2022/04/11 10:12:05;;;;;;;;;7.40;4.40;;;;;34.80;14.66;100656.25;5037789;28;45406;-46
2022/04/11 10:14:31;;;;;;;;;4.40;4.40;;;;;35.59;13.59;100641.13;5037409;28;46917;-48
2022/04/11 10:17:02;;;;;;;;;2.75;1.25;;;;;36.18;13.70;100650.03;5037181;28;45751;-47
2022/04/11 10:19:33;;;;;;;;;3.60;3.60;;;;;36.78;12.27;100649.34;5037789;28;45355;-48
2022/04/11 10:22:04;;;;;;;;;1.20;1.20;;;;;37.38;13.29;100642.97;5037426;28;45501;-46
2022/04/11 10:24:38;;;;;;;;;3.80;2.00;;;;;37.82;13.84;100643.69;5035630;28;45348;-49
2022/04/11 10:27:23;;;;;;;;;2.60;1.80;;;;;37.73;11.47;100644.88;5037469;28;45281;-46
2022/04/11 10:29:51;;;;;;;;;3.00;3.00;;;;;37.70;12.68;100649.91;5037319;28;45300;-48
2022/04/11 10:32:21;;;;;;;;;2.40;2.40;;;;;37.01;12.04;100652.00;5037417;28;45421;-48
2022/04/11 10:34:49;;;;;;;;;2.00;2.00;;;;;37.18;12.22;100641.69;5036863;28;47029;-45
2022/04/11 10:37:16;;;;;;;;;2.60;2.60;;;;;37.91;13.75;100633.38;5037041;28;45413;-46
2022/04/11 10:39:46;;;;;;;;;4.00;3.00;;;;;38.60;11.95;100628.56;5037216;28;45321;-47
2022/04/11 10:42:16;;;;;;;;;3.80;2.20;;;;;39.42;10.94;100631.66;5037066;28;45337;-48
2022/04/11 10:44:56;;;;;;;;;1.40;1.40;;;;;38.10;13.09;100624.63;5037007;28;46060;-47
2022/04/11 10:47:29;;;;;;;;;1.20;1.20;;;;;38.00;12.09;100621.41;5036874;28;45773;-49
2022/04/11 10:49:54;;;;;;;;;5.00;3.20;;;;;37.69;12.82;100611.41;5037061;28;45332;-46
2022/04/11 10:52:32;;;;;;;;;3.75;3.75;;;;;37.45;12.95;100614.75;5036262;28;45227;-45
2022/04/11 10:55:10;;;;;;;;;4.60;4.60;;;;;37.43;11.52;100605.94;5036885;28;47068;-51
2022/04/11 10:57:36;;;;;;;;;2.80;2.80;;;;;37.47;12.05;100611.66;5036672;28;45415;-49
2022/04/11 11:00:06;;;;;;;;;1.40;1.40;;;;;38.00;11.28;100607.53;5036955;28;45459;-47
2022/04/11 11:02:51;;;;;;;;;3.20;3.20;;;;;38.36;11.65;100616.16;5037014;28;45509;-46
2022/04/11 11:05:39;;;;;;;;;2.40;2.00;;;;;38.59;11.20;100607.50;5036830;28;45294;-46
2022/04/11 11:08:17;;;;;;;;;3.60;2.60;;;;;38.65;11.37;100595.84;5036576;28;45354;-46
2022/04/11 11:10:55;;;;;;;;;2.00;2.00;;;;;38.40;10.97;100592.09;5036721;28;45315;-48
2022/04/11 11:13:36;;;;;;;;;2.20;1.80;;;;;38.53;11.27;100578.28;5037029;28;45423;-47
2022/04/11 11:16:07;;;;;;;;;4.80;4.00;;;;;38.98;10.84;100583.13;5036309;28;46273;-47
2022/04/11 11:18:51;;;;;;;;;5.00;3.60;;;;;39.20;10.47;100584.72;5036677;28;45330;-46
2022/04/11 11:21:16;;;;;;;;;3.00;2.00;;;;;39.60;11.27;100598.84;5036633;28;45241;-49
2022/04/11 11:24:06;;;;;;;;;3.50;3.25;;;;;39.85;10.56;100594.13;5036814;28;45572;-49
2022/04/11 11:26:57;;;;;;;;;4.40;3.40;;;;;40.26;10.40;100593.09;5036422;28;46973;-45
2022/04/11 11:29:25;;;;;;;;;3.00;3.00;;;;;39.81;10.42;100601.56;5036633;28;45420;-49